createdAt,value
2022-09-14T00:00:58.480Z,78.64
2022-09-14T00:02:11.204Z,78.65
2022-09-14T00:03:14.822Z,78.49
2022-09-14T00:04:20.617Z,78.40
2022-09-14T00:05:23.473Z,78.17
2022-09-14T00:06:27.222Z,78.04
2022-09-14T00:07:30.153Z,77.97
2022-09-14T00:08:33.558Z,77.83
2022-09-14T00:09:36.581Z,77.87
2022-09-14T00:10:41.679Z,77.84
2022-09-14T00:11:44.750Z,77.78
2022-09-14T00:12:47.698Z,77.75
2022-09-14T00:13:51.313Z,77.70
2022-09-14T00:14:54.328Z,77.69
2022-09-14T00:15:57.336Z,77.48
2022-09-14T00:17:00.537Z,77.38
2022-09-14T00:18:04.010Z,77.28
2022-09-14T00:19:14.106Z,77.16
2022-09-14T00:20:17.050Z,77.06
2022-09-14T00:21:20.458Z,77.00
2022-09-14T00:22:23.439Z,77.08
2022-09-14T00:23:26.302Z,76.99
2022-09-14T00:24:32.949Z,76.99
2022-09-14T00:25:35.878Z,76.83
2022-09-14T00:26:38.889Z,76.86
2022-09-14T00:27:41.764Z,76.78
2022-09-14T00:28:47.578Z,76.81
2022-09-14T00:29:50.594Z,76.63
2022-09-14T00:30:53.500Z,76.45
2022-09-14T00:31:57.211Z,76.47
2022-09-14T00:33:00.150Z,76.67
2022-09-14T00:34:03.603Z,76.96
2022-09-14T00:35:07.278Z,77.11
2022-09-14T00:36:24.715Z,77.25
2022-09-14T00:37:27.613Z,77.31
2022-09-14T00:38:30.407Z,77.35
2022-09-14T00:39:33.473Z,77.32
2022-09-14T00:40:37.582Z,77.32
2022-09-14T00:41:43.257Z,77.38
2022-09-14T00:42:46.195Z,77.36
2022-09-14T00:43:59.479Z,77.27
2022-09-14T00:45:13.413Z,77.12
2022-09-14T00:46:16.357Z,77.42
2022-09-14T00:47:19.657Z,77.69
2022-09-14T00:48:29.908Z,77.71
2022-09-14T00:49:39.985Z,77.70
2022-09-14T00:50:43.152Z,77.63
2022-09-14T00:51:49.929Z,77.64
2022-09-14T00:52:52.938Z,77.64
2022-09-14T00:53:56.140Z,77.69
2022-09-14T00:55:05.743Z,77.69
2022-09-14T00:56:08.784Z,78.00
2022-09-14T00:57:12.006Z,77.97
2022-09-14T00:58:14.977Z,78.00
2022-09-14T00:59:23.575Z,77.92
2022-09-14T01:00:28.802Z,77.86
2022-09-14T01:01:35.731Z,77.88
2022-09-14T01:02:40.044Z,77.71
2022-09-14T01:03:43.252Z,77.55
2022-09-14T01:04:47.662Z,77.59
2022-09-14T01:06:02.662Z,77.56
2022-09-14T01:07:28.066Z,77.58
2022-09-14T01:08:59.746Z,77.48
2022-09-14T01:10:24.122Z,77.44
2022-09-14T01:11:57.691Z,77.42
2022-09-14T01:13:12.887Z,77.36
2022-09-14T01:14:45.438Z,77.27
2022-09-14T01:16:13.145Z,77.43
2022-09-14T01:17:35.603Z,77.40
2022-09-14T01:18:45.499Z,77.47
2022-09-14T01:20:14.849Z,77.52
2022-09-14T01:21:27.227Z,77.66
2022-09-14T01:22:43.360Z,77.71
2022-09-14T01:24:07.698Z,77.67
2022-09-14T01:25:28.175Z,77.67
2022-09-14T01:26:37.144Z,77.54
2022-09-14T01:27:44.277Z,77.62
2022-09-14T01:28:59.102Z,77.72
2022-09-14T01:30:21.679Z,77.68
2022-09-14T01:31:34.844Z,77.84
2022-09-14T01:32:57.742Z,77.83
2022-09-14T01:34:26.984Z,77.95
2022-09-14T01:35:35.909Z,77.84
2022-09-14T01:36:43.462Z,77.81
2022-09-14T01:37:55.966Z,77.83
2022-09-14T01:39:01.878Z,77.83
2022-09-14T01:40:13.270Z,77.86
2022-09-14T01:41:21.114Z,77.94
2022-09-14T01:42:27.027Z,78.12
2022-09-14T01:43:36.851Z,78.37
2022-09-14T01:44:46.140Z,78.40
2022-09-14T01:45:59.804Z,78.40
2022-09-14T01:47:11.172Z,78.36
2022-09-14T01:48:17.240Z,78.33
2022-09-14T01:49:33.210Z,78.46
2022-09-14T01:50:41.937Z,78.66
2022-09-14T01:52:20.104Z,78.84
2022-09-14T01:53:31.373Z,78.82
2022-09-14T01:54:46.410Z,78.88
2022-09-14T01:55:57.002Z,78.79
2022-09-14T01:57:24.719Z,78.62
2022-09-14T01:58:51.406Z,78.71
2022-09-14T02:00:07.668Z,78.58
2022-09-14T02:01:15.598Z,78.57
2022-09-14T02:02:22.269Z,78.66
2022-09-14T02:03:37.562Z,78.68
2022-09-14T02:04:50.790Z,78.64
2022-09-14T02:07:06.678Z,78.62
2022-09-14T02:08:09.588Z,78.57
2022-09-14T02:09:16.257Z,78.59
2022-09-14T02:10:19.261Z,78.61
2022-09-14T02:11:22.239Z,78.63
2022-09-14T02:12:26.126Z,78.61
2022-09-14T02:13:29.627Z,78.60
2022-09-14T02:14:32.769Z,78.67
2022-09-14T02:15:37.329Z,78.90
2022-09-14T02:16:44.024Z,78.94
2022-09-14T02:17:48.149Z,78.94
2022-09-14T02:18:51.247Z,78.89
2022-09-14T02:19:58.243Z,78.89
2022-09-14T02:21:25.999Z,78.87
2022-09-14T02:22:30.808Z,78.96
2022-09-14T02:23:36.441Z,79.02
2022-09-14T02:24:39.830Z,79.12
2022-09-14T02:25:42.655Z,79.13
2022-09-14T02:26:50.216Z,79.19
2022-09-14T02:27:53.127Z,79.25
2022-09-14T02:28:57.547Z,79.30
2022-09-14T02:30:00.625Z,79.36
2022-09-14T02:31:43.348Z,79.37
2022-09-14T02:33:08.584Z,79.39
2022-09-14T02:34:27.714Z,79.49
2022-09-14T02:35:47.645Z,79.64
2022-09-14T02:36:56.845Z,79.62
2022-09-14T02:38:11.493Z,79.43
2022-09-14T02:39:48.176Z,79.52
2022-09-14T02:40:56.691Z,79.53
2022-09-14T02:42:22.466Z,79.67
2022-09-14T02:43:44.172Z,79.54
2022-09-14T02:44:54.448Z,79.41
2022-09-14T02:46:06.773Z,79.40
2022-09-14T02:47:33.422Z,79.40
2022-09-14T02:48:50.273Z,79.46
2022-09-14T02:50:00.800Z,79.78
2022-09-14T02:51:09.542Z,79.77
2022-09-14T02:53:05.266Z,79.77
2022-09-14T02:54:19.313Z,79.88
2022-09-14T02:55:26.312Z,79.82
2022-09-14T02:56:29.407Z,79.86
2022-09-14T02:57:32.462Z,80.03
2022-09-14T02:58:44.395Z,80.04
2022-09-14T02:59:47.507Z,80.18
2022-09-14T03:00:51.042Z,80.23
2022-09-14T03:01:54.189Z,80.67
2022-09-14T03:02:57.521Z,80.74
2022-09-14T03:04:00.404Z,81.05
2022-09-14T03:05:03.432Z,81.36
2022-09-14T03:06:07.051Z,81.38
2022-09-14T03:07:10.033Z,81.31
2022-09-14T03:08:13.657Z,81.46
2022-09-14T03:10:24.297Z,81.46
2022-09-14T03:11:27.200Z,81.44
2022-09-14T03:12:30.038Z,81.50
2022-09-14T03:13:35.228Z,81.45
2022-09-14T03:14:38.123Z,81.38
2022-09-14T03:15:41.274Z,81.42
2022-09-14T03:16:44.345Z,81.12
2022-09-14T03:17:49.130Z,81.31
2022-09-14T03:18:52.270Z,81.27
2022-09-14T03:19:55.185Z,81.20
2022-09-14T03:21:09.865Z,81.08
2022-09-14T03:22:12.780Z,81.10
2022-09-14T03:23:15.782Z,80.82
2022-09-14T03:24:18.753Z,80.93
2022-09-14T03:25:23.623Z,80.82
2022-09-14T03:26:29.911Z,80.93
2022-09-14T03:27:32.948Z,80.80
2022-09-14T03:28:36.347Z,80.74
2022-09-14T03:29:39.170Z,81.00
2022-09-14T03:30:42.006Z,81.11
2022-09-14T03:31:44.949Z,81.09
2022-09-14T03:32:48.306Z,81.04
2022-09-14T03:33:57.031Z,81.21
2022-09-14T03:35:00.279Z,81.24
2022-09-14T03:36:24.237Z,81.15
2022-09-14T03:37:33.815Z,81.05
2022-09-14T03:38:36.773Z,80.91
2022-09-14T03:39:39.688Z,81.08
2022-09-14T03:40:42.571Z,80.94
2022-09-14T03:41:45.389Z,81.05
2022-09-14T03:42:50.827Z,80.88
2022-09-14T03:43:53.733Z,80.96
2022-09-14T03:44:57.013Z,81.18
2022-09-14T03:46:06.146Z,81.25
2022-09-14T03:47:09.184Z,81.26
2022-09-14T03:48:15.713Z,81.10
2022-09-14T03:49:18.758Z,80.84
2022-09-14T03:50:21.762Z,80.93
2022-09-14T03:51:24.864Z,80.92
2022-09-14T03:52:27.789Z,80.79
2022-09-14T03:53:31.461Z,80.52
2022-09-14T03:54:34.325Z,80.57
2022-09-14T03:55:37.242Z,80.40
2022-09-14T03:56:40.892Z,80.51
2022-09-14T03:57:43.780Z,80.68
2022-09-14T03:58:47.951Z,80.72
2022-09-14T03:59:51.344Z,80.82
2022-09-14T04:00:54.186Z,80.91
2022-09-14T04:01:57.140Z,80.81
2022-09-14T04:03:01.124Z,80.73
2022-09-14T04:04:04.471Z,80.90
2022-09-14T04:05:07.938Z,80.92
2022-09-14T04:06:11.510Z,81.02
2022-09-14T04:07:20.418Z,80.97
2022-09-14T04:08:24.054Z,80.93
2022-09-14T04:09:27.040Z,80.95
2022-09-14T04:10:29.919Z,81.01
2022-09-14T04:11:34.519Z,81.03
2022-09-14T04:12:38.731Z,80.70
2022-09-14T04:13:42.255Z,80.82
2022-09-14T04:14:45.144Z,80.96
2022-09-14T04:16:00.528Z,80.90
2022-09-14T04:17:04.346Z,80.67
2022-09-14T04:18:07.221Z,80.72
2022-09-14T04:19:12.169Z,80.78
2022-09-14T04:20:15.344Z,80.84
2022-09-14T04:21:22.202Z,81.00
2022-09-14T04:22:25.169Z,81.18
2022-09-14T04:23:28.543Z,81.23
2022-09-14T04:24:31.733Z,81.31
2022-09-14T04:25:34.598Z,81.39
2022-09-14T04:26:37.470Z,81.38
2022-09-14T04:27:40.332Z,81.40
2022-09-14T04:28:43.751Z,81.49
2022-09-14T04:29:50.382Z,81.61
2022-09-14T04:31:01.504Z,81.52
2022-09-14T04:32:04.608Z,81.57
2022-09-14T04:33:07.458Z,81.62
2022-09-14T04:34:13.932Z,81.73
2022-09-14T04:35:16.981Z,81.91
2022-09-14T04:36:23.918Z,81.96
2022-09-14T04:37:26.731Z,82.07
2022-09-14T04:38:31.483Z,82.02
2022-09-14T04:39:34.534Z,81.91
2022-09-14T04:40:41.713Z,81.96
2022-09-14T04:41:44.541Z,81.78
2022-09-14T04:42:47.636Z,81.84
2022-09-14T04:43:53.808Z,81.80
2022-09-14T04:44:57.241Z,81.76
2022-09-14T04:46:05.141Z,81.82
2022-09-14T04:47:08.002Z,81.68
2022-09-14T04:48:10.877Z,81.70
2022-09-14T04:49:14.446Z,81.72
2022-09-14T04:50:17.405Z,81.77
2022-09-14T04:51:26.983Z,81.89
2022-09-14T04:52:29.881Z,81.95
2022-09-14T04:53:37.154Z,81.85
2022-09-14T04:54:39.961Z,81.82
2022-09-14T04:55:42.996Z,82.01
2022-09-14T04:56:46.285Z,82.22
2022-09-14T04:57:49.631Z,82.20
2022-09-14T04:58:55.349Z,82.06
2022-09-14T04:59:58.277Z,82.09
2022-09-14T05:01:08.921Z,82.01
2022-09-14T05:02:11.902Z,82.05
2022-09-14T05:03:14.960Z,82.14
2022-09-14T05:04:17.984Z,82.11
2022-09-14T05:05:20.857Z,82.09
2022-09-14T05:06:27.030Z,82.08
2022-09-14T05:07:33.937Z,82.08
2022-09-14T05:08:38.868Z,82.24
2022-09-14T05:09:42.180Z,82.50
2022-09-14T05:10:45.210Z,82.76
2022-09-14T05:11:50.099Z,82.81
2022-09-14T05:12:53.047Z,82.70
2022-09-14T05:14:02.829Z,82.76
2022-09-14T05:15:06.634Z,82.82
2022-09-14T05:16:24.223Z,82.86
2022-09-14T05:17:27.258Z,82.78
2022-09-14T05:18:34.273Z,82.50
2022-09-14T05:19:37.192Z,82.37
2022-09-14T05:20:40.083Z,82.30
2022-09-14T05:21:43.399Z,82.37
2022-09-14T05:22:50.506Z,82.50
2022-09-14T05:23:55.390Z,82.64
2022-09-14T05:24:58.249Z,82.43
2022-09-14T05:26:01.569Z,82.30
2022-09-14T05:27:04.582Z,82.31
2022-09-14T05:28:10.849Z,82.17
2022-09-14T05:29:15.510Z,82.10
2022-09-14T05:30:18.457Z,82.06
2022-09-14T05:31:22.436Z,82.03
2022-09-14T05:32:25.334Z,81.97
2022-09-14T05:33:28.296Z,81.88
2022-09-14T05:34:31.140Z,81.81
2022-09-14T05:35:34.012Z,81.68
2022-09-14T05:36:38.348Z,81.42
2022-09-14T05:37:41.284Z,81.37
2022-09-14T05:38:44.365Z,81.18
2022-09-14T05:39:47.175Z,81.53
2022-09-14T05:40:55.169Z,81.50
2022-09-14T05:41:58.117Z,81.89
2022-09-14T05:43:00.971Z,81.92
2022-09-14T05:44:04.408Z,82.12
2022-09-14T05:45:07.759Z,82.29
2022-09-14T05:46:13.302Z,82.34
2022-09-14T05:47:16.280Z,82.42
2022-09-14T05:48:19.440Z,82.27
2022-09-14T05:49:22.298Z,82.29
2022-09-14T05:50:25.269Z,82.36
2022-09-14T05:51:28.626Z,82.25
2022-09-14T05:52:31.476Z,82.20
2022-09-14T05:53:34.857Z,82.14
2022-09-14T05:54:40.843Z,81.91
2022-09-14T05:55:43.797Z,81.68
2022-09-14T05:56:47.340Z,81.42
2022-09-14T05:57:51.277Z,81.86
2022-09-14T05:58:59.779Z,81.81
2022-09-14T06:00:03.854Z,81.00
2022-09-14T06:01:08.113Z,80.69
2022-09-14T06:02:14.410Z,80.48
2022-09-14T06:03:19.430Z,80.16
2022-09-14T06:04:22.325Z,79.74
2022-09-14T06:05:28.445Z,78.73
2022-09-14T06:06:34.443Z,78.07
2022-09-14T06:07:37.789Z,76.98
2022-09-14T06:08:41.126Z,76.54
2022-09-14T06:09:44.299Z,76.12
2022-09-14T06:10:47.167Z,76.14
2022-09-14T06:11:50.401Z,75.93
2022-09-14T06:12:55.471Z,75.97
2022-09-14T06:13:58.911Z,75.15
2022-09-14T06:15:05.869Z,74.97
2022-09-14T06:16:14.781Z,75.26
2022-09-14T06:17:17.833Z,75.34
2022-09-14T06:18:20.728Z,75.35
2022-09-14T06:19:23.766Z,75.15
2022-09-14T06:20:30.043Z,75.05
2022-09-14T06:21:35.515Z,74.76
2022-09-14T06:22:38.414Z,74.00
2022-09-14T06:23:41.725Z,73.90
2022-09-14T06:24:44.634Z,74.31
2022-09-14T06:25:47.620Z,73.84
2022-09-14T06:26:50.458Z,73.68
2022-09-14T06:27:56.057Z,73.72
2022-09-14T06:28:59.103Z,73.92
2022-09-14T06:30:01.999Z,74.17
2022-09-14T06:31:08.052Z,74.33
2022-09-14T06:32:10.939Z,74.46
2022-09-14T06:33:13.877Z,74.46
2022-09-14T06:34:16.883Z,74.55
2022-09-14T06:35:20.007Z,74.60
2022-09-14T06:36:25.261Z,74.04
2022-09-14T06:37:28.315Z,73.80
2022-09-14T06:38:31.557Z,73.29
2022-09-14T06:39:37.860Z,71.63
2022-09-14T06:40:52.439Z,71.75
2022-09-14T06:41:55.393Z,71.67
2022-09-14T06:43:02.472Z,72.18
2022-09-14T06:44:05.415Z,72.53
2022-09-14T06:45:10.834Z,72.17
2022-09-14T06:46:19.253Z,72.26
2022-09-14T06:47:22.479Z,72.35
2022-09-14T06:48:26.091Z,72.05
2022-09-14T06:49:29.247Z,72.07
2022-09-14T06:50:32.078Z,70.86
2022-09-14T06:51:39.014Z,71.00
2022-09-14T06:52:42.000Z,71.52
2022-09-14T06:53:45.897Z,72.18
2022-09-14T06:54:48.824Z,72.59
2022-09-14T06:55:52.588Z,72.47
2022-09-14T06:56:55.637Z,72.43
2022-09-14T06:57:58.691Z,72.91
2022-09-14T06:59:04.026Z,72.93
2022-09-14T07:00:07.549Z,72.89
2022-09-14T07:01:16.541Z,73.54
2022-09-14T07:02:19.862Z,73.85
2022-09-14T07:03:23.174Z,75.59
2022-09-14T07:04:26.150Z,75.82
2022-09-14T07:05:31.264Z,76.46
2022-09-14T07:06:43.728Z,77.26
2022-09-14T07:07:46.757Z,77.53
2022-09-14T07:08:51.290Z,77.76
2022-09-14T07:09:54.353Z,77.63
2022-09-14T07:10:59.131Z,78.04
2022-09-14T07:12:02.277Z,79.07
2022-09-14T07:13:05.120Z,79.87
2022-09-14T07:14:08.824Z,80.37
2022-09-14T07:15:11.858Z,80.46
2022-09-14T07:16:15.731Z,80.60
2022-09-14T07:17:18.793Z,81.21
2022-09-14T07:18:26.832Z,81.73
2022-09-14T07:19:29.927Z,83.08
2022-09-14T07:20:34.112Z,83.53
2022-09-14T07:21:37.411Z,83.69
2022-09-14T07:22:40.336Z,83.60
2022-09-14T07:23:45.150Z,83.46
2022-09-14T07:24:48.001Z,83.63
2022-09-14T07:26:04.719Z,83.76
2022-09-14T07:27:07.713Z,83.34
2022-09-14T07:28:10.826Z,83.67
2022-09-14T07:29:19.584Z,83.92
2022-09-14T07:30:30.770Z,83.94
2022-09-14T07:31:46.422Z,84.40
2022-09-14T07:32:49.257Z,84.59
2022-09-14T07:33:58.256Z,84.71
2022-09-14T07:35:02.585Z,84.12
2022-09-14T07:36:11.071Z,84.06
2022-09-14T07:37:13.894Z,84.38
2022-09-14T07:38:26.955Z,84.42
2022-09-14T07:39:38.678Z,83.81
2022-09-14T07:40:47.822Z,83.70
2022-09-14T07:41:50.666Z,83.59
2022-09-14T07:42:57.568Z,83.20
2022-09-14T07:44:05.846Z,82.84
2022-09-14T07:45:12.066Z,83.05
2022-09-14T07:46:14.904Z,82.87
2022-09-14T07:47:17.868Z,82.78
2022-09-14T07:48:21.290Z,82.94
2022-09-14T07:49:24.734Z,83.25
2022-09-14T07:50:27.974Z,83.55
2022-09-14T07:51:31.997Z,83.80
2022-09-14T07:52:38.616Z,83.89
2022-09-14T07:53:43.084Z,84.11
2022-09-14T07:54:46.006Z,83.96
2022-09-14T07:55:48.904Z,83.93
2022-09-14T07:56:51.778Z,84.08
2022-09-14T07:57:56.841Z,84.28
2022-09-14T07:59:23.856Z,84.33
2022-09-14T08:00:27.533Z,84.14
2022-09-14T08:01:30.956Z,83.84
2022-09-14T08:02:34.920Z,83.71
2022-09-14T08:03:40.508Z,83.52
2022-09-14T08:04:43.731Z,83.44
2022-09-14T08:05:46.619Z,83.03
2022-09-14T08:06:49.653Z,81.64
2022-09-14T08:07:58.619Z,81.82
2022-09-14T08:09:06.742Z,81.89
2022-09-14T08:10:09.799Z,81.90
2022-09-14T08:11:16.045Z,82.03
2022-09-14T08:12:19.048Z,82.32
2022-09-14T08:13:22.014Z,82.24
2022-09-14T08:14:29.034Z,82.29
2022-09-14T08:15:33.582Z,82.63
2022-09-14T08:16:41.040Z,82.74
2022-09-14T08:17:44.206Z,82.64
2022-09-14T08:18:48.231Z,82.70
2022-09-14T08:19:52.442Z,82.75
2022-09-14T08:20:55.535Z,82.57
2022-09-14T08:21:58.479Z,82.72
2022-09-14T08:23:01.396Z,82.54
2022-09-14T08:24:04.587Z,82.34
2022-09-14T08:25:09.017Z,82.34
2022-09-14T08:26:16.796Z,82.02
2022-09-14T08:27:19.690Z,81.68
2022-09-14T08:28:22.567Z,81.46
2022-09-14T08:29:26.275Z,80.28
2022-09-14T08:30:29.218Z,80.15
2022-09-14T08:31:40.706Z,80.22
2022-09-14T08:32:43.573Z,79.73
2022-09-14T08:33:51.384Z,79.63
2022-09-14T08:34:54.282Z,79.16
2022-09-14T08:35:58.433Z,79.14
2022-09-14T08:37:01.413Z,78.92
2022-09-14T08:38:04.335Z,77.83
2022-09-14T08:39:10.921Z,77.65
2022-09-14T08:40:17.959Z,77.56
2022-09-14T08:41:31.035Z,76.92
2022-09-14T08:42:34.111Z,76.01
2022-09-14T08:43:39.142Z,76.15
2022-09-14T08:44:47.314Z,76.18
2022-09-14T08:45:53.432Z,76.15
2022-09-14T08:47:04.391Z,75.85
2022-09-14T08:48:26.077Z,75.48
2022-09-14T08:49:35.635Z,74.82
2022-09-14T08:50:39.139Z,74.17
2022-09-14T08:51:43.301Z,74.50
2022-09-14T08:52:53.558Z,74.27
2022-09-14T08:53:59.794Z,74.05
2022-09-14T08:55:17.740Z,73.37
2022-09-14T08:56:27.548Z,73.67
2022-09-14T08:57:47.604Z,73.90
2022-09-14T08:59:09.072Z,73.23
2022-09-14T09:00:18.171Z,73.36
2022-09-14T09:01:50.920Z,72.67
2022-09-14T09:03:20.585Z,72.96
2022-09-14T09:04:41.327Z,72.49
2022-09-14T09:06:15.968Z,71.64
2022-09-14T09:07:33.174Z,72.06
2022-09-14T09:08:56.982Z,71.75
2022-09-14T09:10:00.285Z,71.73
2022-09-14T09:11:05.905Z,71.65
2022-09-14T09:12:15.257Z,71.75
2022-09-14T09:13:22.833Z,71.91
2022-09-14T09:14:33.923Z,70.92
2022-09-14T09:15:45.333Z,71.38
2022-09-14T09:16:52.407Z,71.89
2022-09-14T09:18:01.547Z,70.83
2022-09-14T09:19:12.106Z,69.98
2022-09-14T09:20:21.215Z,69.78
2022-09-14T09:21:31.350Z,70.25
2022-09-14T09:23:15.064Z,70.57
2022-09-14T09:24:26.519Z,70.75
2022-09-14T09:25:39.667Z,70.54
2022-09-14T09:26:43.301Z,69.95
2022-09-14T09:27:47.947Z,69.55
2022-09-14T09:28:56.958Z,69.54
2022-09-14T09:29:59.885Z,69.34
2022-09-14T09:31:05.753Z,68.80
2022-09-14T09:32:17.696Z,68.59
2022-09-14T09:33:24.892Z,67.99
2022-09-14T09:34:30.746Z,68.38
2022-09-14T09:35:34.109Z,68.42
2022-09-14T09:36:41.185Z,68.37
2022-09-14T09:37:44.050Z,69.25
2022-09-14T09:38:47.027Z,68.79
2022-09-14T09:39:50.675Z,67.96
2022-09-14T09:41:07.881Z,68.34
2022-09-14T09:42:22.878Z,68.67
2022-09-14T09:43:45.786Z,68.08
2022-09-14T09:45:03.628Z,68.21
2022-09-14T09:46:09.617Z,67.11
2022-09-14T09:47:12.655Z,66.85
2022-09-14T09:48:18.953Z,66.93
2022-09-14T09:49:37.475Z,66.38
2022-09-14T09:50:54.973Z,66.30
2022-09-14T09:52:08.053Z,65.91
2022-09-14T09:53:17.481Z,66.53
2022-09-14T09:54:26.655Z,66.72
2022-09-14T09:55:38.618Z,66.50
2022-09-14T09:56:58.148Z,65.67
2022-09-14T09:58:28.146Z,65.98
2022-09-14T09:59:38.745Z,66.50
2022-09-14T10:00:42.197Z,66.70
2022-09-14T10:01:45.281Z,66.07
2022-09-14T10:02:48.999Z,65.93
2022-09-14T10:04:20.079Z,66.34
2022-09-14T10:05:31.938Z,65.72
2022-09-14T10:06:46.773Z,65.59
2022-09-14T10:07:49.559Z,65.79
2022-09-14T10:08:55.399Z,66.02
2022-09-14T10:10:11.594Z,66.40
2022-09-14T10:11:36.822Z,66.42
2022-09-14T10:12:51.137Z,66.53
2022-09-14T10:13:57.094Z,65.40
2022-09-14T10:15:15.891Z,64.95
2022-09-14T10:16:26.963Z,64.59
2022-09-14T10:17:29.919Z,64.42
2022-09-14T10:18:33.012Z,63.76
2022-09-14T10:19:37.243Z,63.74
2022-09-14T10:21:07.305Z,63.97
2022-09-14T10:22:26.790Z,64.27
2022-09-14T10:23:33.687Z,64.53
2022-09-14T10:24:38.250Z,64.50
2022-09-14T10:25:41.278Z,64.25
2022-09-14T10:26:44.397Z,64.08
2022-09-14T10:28:01.244Z,63.85
2022-09-14T10:29:39.230Z,63.94
2022-09-14T10:30:49.561Z,63.95
2022-09-14T10:31:55.432Z,63.71
2022-09-14T10:33:05.242Z,63.56
2022-09-14T10:34:19.647Z,63.20
2022-09-14T10:35:26.109Z,62.82
2022-09-14T10:36:30.785Z,62.64
2022-09-14T10:37:40.695Z,62.49
2022-09-14T10:39:16.406Z,63.26
2022-09-14T10:40:25.519Z,62.95
2022-09-14T10:41:53.287Z,62.68
2022-09-14T10:42:56.270Z,63.48
2022-09-14T10:44:33.983Z,63.56
2022-09-14T10:45:44.213Z,63.67
2022-09-14T10:47:10.313Z,64.35
2022-09-14T10:48:27.170Z,64.30
2022-09-14T10:49:48.534Z,64.39
2022-09-14T10:51:26.825Z,64.60
2022-09-14T10:53:02.718Z,64.92
2022-09-14T10:54:15.770Z,64.84
2022-09-14T10:55:44.192Z,64.30
2022-09-14T10:57:13.428Z,63.94
2022-09-14T10:58:25.043Z,63.97
2022-09-14T10:59:46.463Z,63.75
2022-09-14T11:01:11.833Z,63.68
2022-09-14T11:02:20.490Z,63.54
2022-09-14T11:03:42.776Z,63.15
2022-09-14T11:05:08.265Z,63.46
2022-09-14T11:06:16.220Z,63.01
2022-09-14T11:07:52.676Z,62.78
2022-09-14T11:09:20.634Z,62.21
2022-09-14T11:10:41.440Z,62.35
2022-09-14T11:12:08.370Z,62.93
2022-09-14T11:13:17.274Z,63.56
2022-09-14T11:14:34.791Z,63.61
2022-09-14T11:15:56.527Z,63.45
2022-09-14T11:17:16.786Z,63.52
2022-09-14T11:18:34.724Z,63.21
2022-09-14T11:20:04.549Z,62.07
2022-09-14T11:22:12.132Z,62.50
2022-09-14T11:23:36.128Z,63.25
2022-09-14T11:24:45.219Z,62.80
2022-09-14T11:26:03.077Z,63.55
2022-09-14T11:27:39.239Z,63.55
2022-09-14T11:28:52.911Z,64.08
2022-09-14T11:30:06.351Z,64.30
2022-09-14T11:31:24.783Z,64.54
2022-09-14T11:32:33.099Z,64.16
2022-09-14T11:33:38.617Z,63.97
2022-09-14T11:35:11.244Z,64.26
2022-09-14T11:36:20.670Z,64.49
2022-09-14T11:37:35.620Z,65.03
2022-09-14T11:38:50.105Z,65.21
2022-09-14T11:40:07.263Z,65.35
2022-09-14T11:41:39.969Z,65.54
2022-09-14T11:43:10.095Z,65.04
2022-09-14T11:44:21.101Z,64.62
2022-09-14T11:45:31.134Z,64.22
2022-09-14T11:46:42.776Z,64.54
2022-09-14T11:47:58.292Z,64.70
2022-09-14T11:49:43.374Z,65.18
2022-09-14T11:50:47.755Z,65.68
2022-09-14T11:51:57.546Z,64.55
2022-09-14T11:53:14.830Z,64.86
2022-09-14T11:54:20.156Z,65.02
2022-09-14T11:55:23.542Z,65.37
2022-09-14T11:56:30.958Z,65.42
2022-09-14T11:57:37.109Z,65.55
2022-09-14T11:58:40.331Z,65.47
2022-09-14T11:59:44.718Z,65.18
2022-09-14T12:00:53.191Z,65.77
2022-09-14T12:02:00.019Z,65.14
2022-09-14T12:03:05.884Z,65.29
2022-09-14T12:04:15.842Z,65.31
2022-09-14T12:05:18.699Z,66.09
2022-09-14T12:06:34.110Z,66.02
2022-09-14T12:07:39.937Z,66.21
2022-09-14T12:08:42.892Z,66.15
2022-09-14T12:09:46.486Z,65.90
2022-09-14T12:11:26.445Z,65.12
2022-09-14T12:12:32.522Z,65.52
2022-09-14T12:13:36.827Z,64.78
2022-09-14T12:14:44.303Z,63.36
2022-09-14T12:15:47.319Z,63.70
2022-09-14T12:17:38.324Z,64.21
2022-09-14T12:18:42.649Z,63.69
2022-09-14T12:19:48.398Z,63.89
2022-09-14T12:21:02.013Z,63.79
2022-09-14T12:22:27.581Z,63.99
2022-09-14T12:23:43.695Z,64.29
2022-09-14T12:24:58.589Z,63.76
2022-09-14T12:26:11.793Z,63.56
2022-09-14T12:27:22.119Z,63.55
2022-09-14T12:28:35.734Z,64.21
2022-09-14T12:29:38.921Z,64.11
2022-09-14T12:30:41.817Z,63.43
2022-09-14T12:31:45.174Z,64.19
2022-09-14T12:32:49.474Z,64.43
2022-09-14T12:34:17.724Z,63.92
2022-09-14T12:35:32.667Z,64.32
2022-09-14T12:36:38.407Z,64.03
2022-09-14T12:37:41.739Z,63.74
2022-09-14T12:38:50.883Z,63.39
2022-09-14T12:40:32.607Z,63.19
2022-09-14T12:41:35.519Z,63.02
2022-09-14T12:42:38.430Z,62.96
2022-09-14T12:43:41.364Z,63.37
2022-09-14T12:44:44.376Z,63.24
2022-09-14T12:45:50.936Z,62.23
2022-09-14T12:46:55.149Z,61.94
2022-09-14T12:47:58.165Z,61.87
2022-09-14T12:49:04.542Z,62.15
2022-09-14T12:50:20.231Z,62.04
2022-09-14T12:51:31.962Z,62.03
2022-09-14T12:52:37.727Z,62.49
2022-09-14T12:53:44.189Z,62.39
2022-09-14T12:55:15.373Z,61.44
2022-09-14T12:56:27.455Z,61.38
2022-09-14T12:57:46.021Z,61.74
2022-09-14T12:59:01.245Z,61.96
2022-09-14T13:00:12.137Z,61.88
2022-09-14T13:01:39.842Z,61.70
2022-09-14T13:03:20.054Z,60.93
2022-09-14T13:04:28.211Z,62.21
2022-09-14T13:05:34.611Z,62.08
2022-09-14T13:06:44.502Z,62.02
2022-09-14T13:07:47.497Z,61.53
2022-09-14T13:08:54.977Z,61.29
2022-09-14T13:09:59.915Z,60.74
2022-09-14T13:11:03.050Z,60.63
2022-09-14T13:12:10.341Z,61.13
2022-09-14T13:13:21.126Z,61.45
2022-09-14T13:14:30.930Z,60.87
2022-09-14T13:15:37.277Z,60.92
2022-09-14T13:16:44.773Z,59.91
2022-09-14T13:18:04.716Z,60.47
2022-09-14T13:19:26.853Z,59.71
2022-09-14T13:20:32.392Z,59.83
2022-09-14T13:21:35.353Z,60.72
2022-09-14T13:22:43.344Z,60.29
2022-09-14T13:23:46.585Z,58.84
2022-09-14T13:24:50.180Z,59.33
2022-09-14T13:25:53.915Z,58.80
2022-09-14T13:27:00.200Z,59.11
2022-09-14T13:28:13.846Z,59.76
2022-09-14T13:29:16.765Z,60.23
2022-09-14T13:30:22.726Z,61.09
2022-09-14T13:31:39.809Z,60.90
2022-09-14T13:32:47.050Z,61.21
2022-09-14T13:33:53.417Z,60.92
2022-09-14T13:35:00.243Z,60.50
2022-09-14T13:36:04.500Z,60.72
2022-09-14T13:37:07.904Z,61.37
2022-09-14T13:38:20.486Z,60.85
2022-09-14T13:39:26.806Z,60.76
2022-09-14T13:40:31.094Z,60.39
2022-09-14T13:41:34.283Z,60.21
2022-09-14T13:42:37.425Z,60.25
2022-09-14T13:43:42.148Z,60.56
2022-09-14T13:44:47.077Z,60.58
2022-09-14T13:45:51.875Z,61.24
2022-09-14T13:46:57.214Z,61.02
2022-09-14T13:48:00.661Z,61.00
2022-09-14T13:49:07.330Z,61.56
2022-09-14T13:50:14.087Z,61.36
2022-09-14T13:51:22.204Z,61.55
2022-09-14T13:52:43.077Z,61.35
2022-09-14T13:53:52.171Z,61.59
2022-09-14T13:55:20.882Z,61.26
2022-09-14T13:56:32.680Z,61.27
2022-09-14T13:57:35.694Z,61.36
2022-09-14T13:58:38.808Z,61.35
2022-09-14T14:00:03.916Z,61.38
2022-09-14T14:01:07.229Z,61.45
2022-09-14T14:02:14.172Z,61.65
2022-09-14T14:03:47.081Z,61.46
2022-09-14T14:04:53.111Z,62.11
2022-09-14T14:05:56.753Z,61.90
2022-09-14T14:07:31.977Z,61.75
2022-09-14T14:08:37.524Z,61.70
2022-09-14T14:09:51.006Z,61.41
2022-09-14T14:10:55.774Z,61.57
2022-09-14T14:11:58.966Z,61.56
2022-09-14T14:13:03.022Z,61.91
2022-09-14T14:14:17.911Z,61.90
2022-09-14T14:15:20.758Z,61.93
2022-09-14T14:16:26.982Z,61.53
2022-09-14T14:18:42.189Z,61.21
2022-09-14T14:19:53.319Z,60.73
2022-09-14T14:21:30.439Z,60.27
2022-09-14T14:22:35.858Z,60.62
2022-09-14T14:24:02.646Z,61.48
2022-09-14T14:25:19.817Z,61.97
2022-09-14T14:26:30.158Z,61.71
2022-09-14T14:27:43.460Z,61.45
2022-09-14T14:28:46.563Z,60.53
2022-09-14T14:29:52.693Z,61.21
2022-09-14T14:30:57.486Z,60.81
2022-09-14T14:32:00.445Z,60.47
2022-09-14T14:33:03.715Z,60.23
2022-09-14T14:34:22.255Z,60.49
2022-09-14T14:35:31.367Z,60.47
2022-09-14T14:36:34.344Z,60.22
2022-09-14T14:37:37.262Z,60.07
2022-09-14T14:38:46.184Z,60.18
2022-09-14T14:39:49.845Z,60.23
2022-09-14T14:40:55.343Z,60.69
2022-09-14T14:42:00.479Z,61.24
2022-09-14T14:43:04.783Z,61.59
2022-09-14T14:44:14.921Z,61.03
2022-09-14T14:45:21.114Z,61.13
2022-09-14T14:46:25.614Z,61.28
2022-09-14T14:47:28.337Z,60.97
2022-09-14T14:48:31.739Z,60.92
2022-09-14T14:49:34.731Z,61.18
2022-09-14T14:50:38.278Z,60.83